sensor_id;sensor_type;location;lat;lon;timestamp;pressure;altitude;pressure_sealevel;temperature;humidity
46303;BME280;32029;51.358;5.628;2022-07-05T00:00:50;101882.47;;;19.18;58.19
46303;BME280;32029;51.358;5.628;2022-07-05T00:03:17;101881.84;;;19.09;59.06
46303;BME280;32029;51.358;5.628;2022-07-05T00:05:43;101877.81;;;18.98;59.54
46303;BME280;32029;51.358;5.628;2022-07-05T00:08:10;101882.09;;;18.88;60.01
46303;BME280;32029;51.358;5.628;2022-07-05T00:10:38;101880.88;;;18.77;60.15
46303;BME280;32029;51.358;5.628;2022-07-05T00:13:06;101887.66;;;18.68;60.59
46303;BME280;32029;51.358;5.628;2022-07-05T00:15:33;101884.50;;;18.57;60.78
46303;BME280;32029;51.358;5.628;2022-07-05T00:18:00;101888.53;;;18.48;61.36
46303;BME280;32029;51.358;5.628;2022-07-05T00:20:27;101885.34;;;18.38;61.58
46303;BME280;32029;51.358;5.628;2022-07-05T00:22:54;101872.72;;;18.22;61.97
46303;BME280;32029;51.358;5.628;2022-07-05T00:25:20;101884.03;;;18.21;62.38
46303;BME280;32029;51.358;5.628;2022-07-05T00:27:47;101880.38;;;18.13;62.73
46303;BME280;32029;51.358;5.628;2022-07-05T00:30:14;101883.38;;;18.05;63.48
46303;BME280;32029;51.358;5.628;2022-07-05T00:32:40;101850.88;;;17.86;63.73
46303;BME280;32029;51.358;5.628;2022-07-05T00:35:08;101870.56;;;17.91;64.05
46303;BME280;32029;51.358;5.628;2022-07-05T00:37:34;101851.06;;;17.71;64.44
46303;BME280;32029;51.358;5.628;2022-07-05T00:40:02;101867.09;;;17.76;64.63
46303;BME280;32029;51.358;5.628;2022-07-05T00:42:30;101871.34;;;17.72;64.83
46303;BME280;32029;51.358;5.628;2022-07-05T00:44:57;101870.44;;;17.64;65.04
46303;BME280;32029;51.358;5.628;2022-07-05T00:47:24;101855.47;;;17.52;65.43
46303;BME280;32029;51.358;5.628;2022-07-05T00:49:50;101866.56;;;17.52;65.90
46303;BME280;32029;51.358;5.628;2022-07-05T00:52:18;101877.00;;;17.50;66.07
46303;BME280;32029;51.358;5.628;2022-07-05T00:54:44;101875.94;;;17.45;66.42
46303;BME280;32029;51.358;5.628;2022-07-05T00:57:11;101859.84;;;17.27;66.51
46303;BME280;32029;51.358;5.628;2022-07-05T00:59:38;101858.38;;;17.24;66.83
46303;BME280;32029;51.358;5.628;2022-07-05T01:02:04;101865.81;;;17.24;66.88
46303;BME280;32029;51.358;5.628;2022-07-05T01:04:31;101853.56;;;17.05;67.24
46303;BME280;32029;51.358;5.628;2022-07-05T01:06:58;101879.22;;;17.13;67.46
46303;BME280;32029;51.358;5.628;2022-07-05T01:09:25;101878.94;;;17.08;67.46
46303;BME280;32029;51.358;5.628;2022-07-05T01:11:51;101881.50;;;17.03;67.49
46303;BME280;32029;51.358;5.628;2022-07-05T01:14:21;101874.84;;;16.98;67.49
46303;BME280;32029;51.358;5.628;2022-07-05T01:16:52;101882.06;;;16.92;67.58
46303;BME280;32029;51.358;5.628;2022-07-05T01:19:20;101871.13;;;16.84;67.67
46303;BME280;32029;51.358;5.628;2022-07-05T01:21:48;101872.59;;;16.80;67.61
46303;BME280;32029;51.358;5.628;2022-07-05T01:24:17;101877.50;;;16.78;67.59
46303;BME280;32029;51.358;5.628;2022-07-05T01:26:47;101871.03;;;16.71;67.83
46303;BME280;32029;51.358;5.628;2022-07-05T01:29:14;101864.56;;;16.63;68.15
46303;BME280;32029;51.358;5.628;2022-07-05T01:31:42;101871.38;;;16.61;68.17
46303;BME280;32029;51.358;5.628;2022-07-05T01:34:09;101872.84;;;16.57;68.19
46303;BME280;32029;51.358;5.628;2022-07-05T01:36:36;101863.44;;;16.51;68.39
46303;BME280;32029;51.358;5.628;2022-07-05T01:39:04;101867.66;;;16.47;68.41
46303;BME280;32029;51.358;5.628;2022-07-05T01:41:31;101865.69;;;16.41;68.77
46303;BME280;32029;51.358;5.628;2022-07-05T01:43:59;101869.28;;;16.35;69.01
46303;BME280;32029;51.358;5.628;2022-07-05T01:46:30;101864.50;;;16.29;69.23
46303;BME280;32029;51.358;5.628;2022-07-05T01:49:02;101866.19;;;16.23;69.58
46303;BME280;32029;51.358;5.628;2022-07-05T01:51:33;101868.50;;;16.20;70.01
46303;BME280;32029;51.358;5.628;2022-07-05T01:54:01;101850.44;;;16.02;70.22
46303;BME280;32029;51.358;5.628;2022-07-05T01:56:27;101839.75;;;15.99;70.21
46303;BME280;32029;51.358;5.628;2022-07-05T01:58:55;101866.44;;;16.07;70.18
46303;BME280;32029;51.358;5.628;2022-07-05T02:01:34;101860.66;;;16.02;70.49
46303;BME280;32029;51.358;5.628;2022-07-05T02:04:02;101868.69;;;15.97;70.64
46303;BME280;32029;51.358;5.628;2022-07-05T02:06:30;101869.28;;;15.92;70.75
46303;BME280;32029;51.358;5.628;2022-07-05T02:08:57;101867.09;;;15.87;71.11
46303;BME280;32029;51.358;5.628;2022-07-05T02:11:23;101863.00;;;15.83;71.29
46303;BME280;32029;51.358;5.628;2022-07-05T02:13:51;101875.72;;;15.78;71.38
46303;BME280;32029;51.358;5.628;2022-07-05T02:16:22;101842.47;;;15.56;71.65
46303;BME280;32029;51.358;5.628;2022-07-05T02:18:48;101864.41;;;15.58;71.96
46303;BME280;32029;51.358;5.628;2022-07-05T02:21:15;101867.34;;;15.56;71.96
46303;BME280;32029;51.358;5.628;2022-07-05T02:23:42;101875.47;;;15.58;72.20
46303;BME280;32029;51.358;5.628;2022-07-05T02:26:10;101869.47;;;15.54;72.34
46303;BME280;32029;51.358;5.628;2022-07-05T02:28:37;101861.03;;;15.41;72.38
46303;BME280;32029;51.358;5.628;2022-07-05T02:31:03;101881.91;;;15.43;72.69
46303;BME280;32029;51.358;5.628;2022-07-05T02:33:31;101886.94;;;15.40;72.81
46303;BME280;32029;51.358;5.628;2022-07-05T02:36:05;101885.63;;;15.36;73.30
46303;BME280;32029;51.358;5.628;2022-07-05T02:38:33;101890.69;;;15.32;73.56
46303;BME280;32029;51.358;5.628;2022-07-05T02:41:00;101888.13;;;15.31;73.52
46303;BME280;32029;51.358;5.628;2022-07-05T02:43:26;101883.81;;;15.28;73.73
46303;BME280;32029;51.358;5.628;2022-07-05T02:45:53;101889.78;;;15.25;73.92
46303;BME280;32029;51.358;5.628;2022-07-05T02:48:20;101881.66;;;15.24;73.93
46303;BME280;32029;51.358;5.628;2022-07-05T02:50:47;101892.06;;;15.22;74.13
46303;BME280;32029;51.358;5.628;2022-07-05T02:53:14;101875.09;;;15.10;74.15
46303;BME280;32029;51.358;5.628;2022-07-05T02:55:40;101886.59;;;15.13;74.05
46303;BME280;32029;51.358;5.628;2022-07-05T02:58:07;101889.09;;;15.08;74.06
46303;BME280;32029;51.358;5.628;2022-07-05T03:00:34;101896.72;;;15.06;74.19
46303;BME280;32029;51.358;5.628;2022-07-05T03:03:01;101893.66;;;15.01;74.26
46303;BME280;32029;51.358;5.628;2022-07-05T03:05:28;101891.31;;;14.98;74.44
46303;BME280;32029;51.358;5.628;2022-07-05T03:07:55;101885.09;;;14.96;74.62
46303;BME280;32029;51.358;5.628;2022-07-05T03:10:23;101878.97;;;14.86;74.45
46303;BME280;32029;51.358;5.628;2022-07-05T03:12:51;101879.88;;;14.86;74.36
46303;BME280;32029;51.358;5.628;2022-07-05T03:15:18;101889.00;;;14.87;74.32
46303;BME280;32029;51.358;5.628;2022-07-05T03:17:45;101877.56;;;14.75;74.93
46303;BME280;32029;51.358;5.628;2022-07-05T03:20:12;101889.47;;;14.76;74.95
46303;BME280;32029;51.358;5.628;2022-07-05T03:22:38;101886.03;;;14.74;75.16
46303;BME280;32029;51.358;5.628;2022-07-05T03:25:05;101879.94;;;14.63;75.47
46303;BME280;32029;51.358;5.628;2022-07-05T03:27:32;101892.34;;;14.67;76.02
46303;BME280;32029;51.358;5.628;2022-07-05T03:29:59;101889.25;;;14.62;76.35
46303;BME280;32029;51.358;5.628;2022-07-05T03:32:26;101897.16;;;14.65;76.47
46303;BME280;32029;51.358;5.628;2022-07-05T03:34:52;101884.13;;;14.59;76.20
46303;BME280;32029;51.358;5.628;2022-07-05T03:37:19;101888.22;;;14.63;76.34
46303;BME280;32029;51.358;5.628;2022-07-05T03:39:46;101891.38;;;14.60;76.49
46303;BME280;32029;51.358;5.628;2022-07-05T03:42:12;101894.78;;;14.62;76.37
46303;BME280;32029;51.358;5.628;2022-07-05T03:44:39;101894.78;;;14.62;76.60
46303;BME280;32029;51.358;5.628;2022-07-05T03:47:06;101893.28;;;14.60;76.49
46303;BME280;32029;51.358;5.628;2022-07-05T03:49:32;101880.41;;;14.52;76.57
46303;BME280;32029;51.358;5.628;2022-07-05T03:51:59;101884.38;;;14.50;76.54
46303;BME280;32029;51.358;5.628;2022-07-05T03:54:26;101894.88;;;14.54;76.68
46303;BME280;32029;51.358;5.628;2022-07-05T03:56:53;101908.31;;;14.57;76.82
46303;BME280;32029;51.358;5.628;2022-07-05T03:59:21;101902.78;;;14.57;76.84
46303;BME280;32029;51.358;5.628;2022-07-05T04:01:47;101898.97;;;14.58;77.35
46303;BME280;32029;51.358;5.628;2022-07-05T04:04:15;101911.75;;;14.59;77.22
46303;BME280;32029;51.358;5.628;2022-07-05T04:06:42;101896.78;;;14.54;77.28
46303;BME280;32029;51.358;5.628;2022-07-05T04:09:08;101901.00;;;14.64;77.00
46303;BME280;32029;51.358;5.628;2022-07-05T04:11:35;101908.22;;;14.65;77.05
46303;BME280;32029;51.358;5.628;2022-07-05T04:14:02;101896.13;;;14.66;77.09
46303;BME280;32029;51.358;5.628;2022-07-05T04:16:28;101906.44;;;14.73;76.76
46303;BME280;32029;51.358;5.628;2022-07-05T04:18:55;101903.94;;;14.78;76.57
46303;BME280;32029;51.358;5.628;2022-07-05T04:21:25;101908.72;;;14.84;76.36
46303;BME280;32029;51.358;5.628;2022-07-05T04:23:51;101910.72;;;14.90;76.56
46303;BME280;32029;51.358;5.628;2022-07-05T04:26:18;101901.47;;;14.98;76.33
46303;BME280;32029;51.358;5.628;2022-07-05T04:28:46;101913.31;;;15.06;76.12
46303;BME280;32029;51.358;5.628;2022-07-05T04:31:14;101913.22;;;15.14;76.07
46303;BME280;32029;51.358;5.628;2022-07-05T04:33:42;101921.59;;;15.21;76.07
46303;BME280;32029;51.358;5.628;2022-07-05T04:36:10;101925.78;;;15.32;76.08
46303;BME280;32029;51.358;5.628;2022-07-05T04:38:36;101933.78;;;15.41;76.42
46303;BME280;32029;51.358;5.628;2022-07-05T04:41:03;101930.81;;;15.43;75.70
46303;BME280;32029;51.358;5.628;2022-07-05T04:43:30;101927.09;;;15.36;75.67
46303;BME280;32029;51.358;5.628;2022-07-05T04:45:58;101940.19;;;15.42;75.85
46303;BME280;32029;51.358;5.628;2022-07-05T04:48:25;101931.19;;;15.40;76.13
46303;BME280;32029;51.358;5.628;2022-07-05T04:50:53;101937.41;;;15.42;76.18
46303;BME280;32029;51.358;5.628;2022-07-05T04:53:20;101932.53;;;15.44;76.27
46303;BME280;32029;51.358;5.628;2022-07-05T04:55:49;101935.88;;;15.54;76.57
46303;BME280;32029;51.358;5.628;2022-07-05T04:58:16;101926.81;;;15.60;76.55
46303;BME280;32029;51.358;5.628;2022-07-05T05:00:44;101920.97;;;15.70;76.59
46303;BME280;32029;51.358;5.628;2022-07-05T05:03:11;101935.97;;;15.97;76.35
46303;BME280;32029;51.358;5.628;2022-07-05T05:05:38;101935.72;;;16.13;75.54
46303;BME280;32029;51.358;5.628;2022-07-05T05:08:06;101926.19;;;16.16;75.29
46303;BME280;32029;51.358;5.628;2022-07-05T05:10:33;101939.28;;;16.29;74.76
46303;BME280;32029;51.358;5.628;2022-07-05T05:13:01;101940.84;;;16.38;74.80
46303;BME280;32029;51.358;5.628;2022-07-05T05:15:29;101943.09;;;16.49;74.65
46303;BME280;32029;51.358;5.628;2022-07-05T05:17:55;101940.63;;;16.61;74.50
46303;BME280;32029;51.358;5.628;2022-07-05T05:20:22;101939.94;;;16.74;74.10
46303;BME280;32029;51.358;5.628;2022-07-05T05:22:49;101925.78;;;16.69;73.67
46303;BME280;32029;51.358;5.628;2022-07-05T05:25:16;101948.75;;;16.84;73.57
46303;BME280;32029;51.358;5.628;2022-07-05T05:27:47;101951.50;;;16.84;73.41
46303;BME280;32029;51.358;5.628;2022-07-05T05:30:15;101947.69;;;16.85;73.50
46303;BME280;32029;51.358;5.628;2022-07-05T05:32:42;101947.94;;;16.90;73.80
46303;BME280;32029;51.358;5.628;2022-07-05T05:35:09;101934.84;;;17.05;73.86
46303;BME280;32029;51.358;5.628;2022-07-05T05:37:53;101938.34;;;17.27;73.38
46303;BME280;32029;51.358;5.628;2022-07-05T05:40:22;101947.22;;;17.51;72.71
46303;BME280;32029;51.358;5.628;2022-07-05T05:42:50;101949.88;;;17.66;72.35
46303;BME280;32029;51.358;5.628;2022-07-05T05:45:18;101947.59;;;17.76;72.20
46303;BME280;32029;51.358;5.628;2022-07-05T05:47:57;101946.16;;;17.86;71.75
46303;BME280;32029;51.358;5.628;2022-07-05T05:50:34;101947.03;;;18.00;71.54
46303;BME280;32029;51.358;5.628;2022-07-05T05:53:01;101953.06;;;18.10;71.27
46303;BME280;32029;51.358;5.628;2022-07-05T05:55:30;101951.75;;;18.13;71.01
46303;BME280;32029;51.358;5.628;2022-07-05T05:58:15;101952.59;;;18.13;70.94
46303;BME280;32029;51.358;5.628;2022-07-05T06:00:43;101961.38;;;18.10;71.09
46303;BME280;32029;51.358;5.628;2022-07-05T06:03:10;101964.56;;;18.07;71.37
46303;BME280;32029;51.358;5.628;2022-07-05T06:05:36;101959.44;;;18.04;71.49
46303;BME280;32029;51.358;5.628;2022-07-05T06:08:03;101949.19;;;18.11;71.54
46303;BME280;32029;51.358;5.628;2022-07-05T06:10:33;101965.91;;;18.45;70.75
46303;BME280;32029;51.358;5.628;2022-07-05T06:13:02;101977.28;;;18.70;70.53
46303;BME280;32029;51.358;5.628;2022-07-05T06:15:30;101971.09;;;18.94;70.03
46303;BME280;32029;51.358;5.628;2022-07-05T06:17:59;101960.59;;;19.09;69.55
46303;BME280;32029;51.358;5.628;2022-07-05T06:20:28;101971.88;;;19.34;68.75
46303;BME280;32029;51.358;5.628;2022-07-05T06:22:56;101958.59;;;19.43;67.56
46303;BME280;32029;51.358;5.628;2022-07-05T06:25:23;101971.38;;;19.57;66.83
46303;BME280;32029;51.358;5.628;2022-07-05T06:27:58;101968.84;;;19.63;65.67
46303;BME280;32029;51.358;5.628;2022-07-05T06:30:27;101979.94;;;19.69;65.83
46303;BME280;32029;51.358;5.628;2022-07-05T06:32:54;101982.69;;;19.76;66.10
46303;BME280;32029;51.358;5.628;2022-07-05T06:35:23;101959.81;;;19.67;66.15
46303;BME280;32029;51.358;5.628;2022-07-05T06:40:33;101993.47;;;20.11;65.53
46303;BME280;32029;51.358;5.628;2022-07-05T06:43:02;101974.53;;;20.19;64.56
46303;BME280;32029;51.358;5.628;2022-07-05T06:45:30;101990.09;;;20.40;64.58
46303;BME280;32029;51.358;5.628;2022-07-05T06:48:02;101991.34;;;20.44;63.87
46303;BME280;32029;51.358;5.628;2022-07-05T06:50:33;101984.31;;;20.35;63.78
46303;BME280;32029;51.358;5.628;2022-07-05T06:53:03;101989.88;;;20.35;64.07
46303;BME280;32029;51.358;5.628;2022-07-05T06:55:30;101994.19;;;20.31;63.63
46303;BME280;32029;51.358;5.628;2022-07-05T06:58:05;101988.84;;;20.29;63.64
46303;BME280;32029;51.358;5.628;2022-07-05T07:00:33;101983.50;;;20.28;63.98
46303;BME280;32029;51.358;5.628;2022-07-05T07:03:00;101982.59;;;20.34;64.06
46303;BME280;32029;51.358;5.628;2022-07-05T07:05:27;101984.50;;;20.40;63.46
46303;BME280;32029;51.358;5.628;2022-07-05T07:07:56;101976.06;;;20.47;62.80
46303;BME280;32029;51.358;5.628;2022-07-05T07:10:42;101987.63;;;20.57;61.25
46303;BME280;32029;51.358;5.628;2022-07-05T07:13:09;101991.00;;;20.66;61.28
46303;BME280;32029;51.358;5.628;2022-07-05T07:15:36;101975.19;;;20.60;61.39
46303;BME280;32029;51.358;5.628;2022-07-05T07:18:05;101992.59;;;20.80;61.58
46303;BME280;32029;51.358;5.628;2022-07-05T07:20:33;101985.47;;;20.84;60.80
46303;BME280;32029;51.358;5.628;2022-07-05T07:23:00;102014.19;;;20.91;60.39
46303;BME280;32029;51.358;5.628;2022-07-05T07:25:28;101990.13;;;20.90;60.67
46303;BME280;32029;51.358;5.628;2022-07-05T07:27:56;101998.06;;;20.93;60.64
46303;BME280;32029;51.358;5.628;2022-07-05T07:30:26;102005.00;;;21.09;59.27
46303;BME280;32029;51.358;5.628;2022-07-05T07:32:54;102021.69;;;21.16;59.31
46303;BME280;32029;51.358;5.628;2022-07-05T07:35:21;101991.03;;;21.09;58.86
46303;BME280;32029;51.358;5.628;2022-07-05T07:37:48;102006.44;;;21.18;59.42
46303;BME280;32029;51.358;5.628;2022-07-05T07:40:15;102012.63;;;21.20;59.79
46303;BME280;32029;51.358;5.628;2022-07-05T07:42:43;102012.16;;;21.23;60.12
46303;BME280;32029;51.358;5.628;2022-07-05T07:45:11;102010.88;;;21.26;60.53
46303;BME280;32029;51.358;5.628;2022-07-05T07:47:38;102022.53;;;21.41;59.83
46303;BME280;32029;51.358;5.628;2022-07-05T07:50:05;102024.50;;;21.59;59.69
46303;BME280;32029;51.358;5.628;2022-07-05T07:52:33;102002.38;;;21.76;59.02
46303;BME280;32029;51.358;5.628;2022-07-05T07:55:01;102012.28;;;22.09;58.85
46303;BME280;32029;51.358;5.628;2022-07-05T07:57:28;102016.66;;;22.35;58.82
46303;BME280;32029;51.358;5.628;2022-07-05T07:59:56;102017.47;;;22.54;58.50
46303;BME280;32029;51.358;5.628;2022-07-05T08:02:24;102014.97;;;22.75;57.89
46303;BME280;32029;51.358;5.628;2022-07-05T08:04:52;102019.50;;;22.88;57.94
46303;BME280;32029;51.358;5.628;2022-07-05T08:07:20;102020.28;;;23.07;57.60
46303;BME280;32029;51.358;5.628;2022-07-05T08:09:47;102007.63;;;23.28;56.74
46303;BME280;32029;51.358;5.628;2022-07-05T08:12:14;102013.84;;;23.54;55.67
46303;BME280;32029;51.358;5.628;2022-07-05T08:14:42;102017.50;;;23.66;55.43
46303;BME280;32029;51.358;5.628;2022-07-05T08:17:09;102012.72;;;23.78;55.17
46303;BME280;32029;51.358;5.628;2022-07-05T08:19:36;102020.34;;;23.94;55.07
46303;BME280;32029;51.358;5.628;2022-07-05T08:22:23;102018.25;;;24.02;54.25
46303;BME280;32029;51.358;5.628;2022-07-05T08:24:50;102020.94;;;24.08;54.93
46303;BME280;32029;51.358;5.628;2022-07-05T08:27:17;102026.22;;;24.21;54.60
46303;BME280;32029;51.358;5.628;2022-07-05T08:29:44;102014.63;;;24.30;54.27
46303;BME280;32029;51.358;5.628;2022-07-05T08:32:12;102014.59;;;24.41;54.20
46303;BME280;32029;51.358;5.628;2022-07-05T08:34:40;102020.25;;;24.58;54.16
46303;BME280;32029;51.358;5.628;2022-07-05T08:37:08;102004.97;;;24.66;53.80
46303;BME280;32029;51.358;5.628;2022-07-05T08:39:36;102000.22;;;24.83;54.03
46303;BME280;32029;51.358;5.628;2022-07-05T08:42:08;101997.81;;;24.92;52.29
46303;BME280;32029;51.358;5.628;2022-07-05T08:44:38;102008.91;;;24.82;52.40
46303;BME280;32029;51.358;5.628;2022-07-05T08:47:08;102011.94;;;24.80;52.52
46303;BME280;32029;51.358;5.628;2022-07-05T08:49:38;102019.44;;;24.75;52.06
46303;BME280;32029;51.358;5.628;2022-07-05T08:52:10;102011.09;;;24.63;52.65
46303;BME280;32029;51.358;5.628;2022-07-05T08:54:39;102009.88;;;24.59;53.19
46303;BME280;32029;51.358;5.628;2022-07-05T08:57:07;102012.94;;;24.57;53.26
46303;BME280;32029;51.358;5.628;2022-07-05T08:59:33;102017.53;;;24.63;52.70
46303;BME280;32029;51.358;5.628;2022-07-05T09:02:00;102007.16;;;24.64;52.24
46303;BME280;32029;51.358;5.628;2022-07-05T09:04:31;102021.97;;;24.76;52.07
46303;BME280;32029;51.358;5.628;2022-07-05T09:07:05;102023.16;;;24.80;52.36
46303;BME280;32029;51.358;5.628;2022-07-05T09:09:38;102018.41;;;24.81;52.46
46303;BME280;32029;51.358;5.628;2022-07-05T09:12:13;102003.94;;;24.72;52.94
46303;BME280;32029;51.358;5.628;2022-07-05T09:14:40;102024.34;;;24.84;52.51
46303;BME280;32029;51.358;5.628;2022-07-05T09:17:06;102024.81;;;24.93;52.16
46303;BME280;32029;51.358;5.628;2022-07-05T09:19:33;102019.53;;;24.97;52.17
46303;BME280;32029;51.358;5.628;2022-07-05T09:22:03;102031.63;;;24.97;52.07
46303;BME280;32029;51.358;5.628;2022-07-05T09:24:30;102007.50;;;24.84;51.92
46303;BME280;32029;51.358;5.628;2022-07-05T09:27:03;102011.44;;;24.83;51.72
46303;BME280;32029;51.358;5.628;2022-07-05T09:29:32;102037.13;;;24.92;50.57
46303;BME280;32029;51.358;5.628;2022-07-05T09:31:58;102034.06;;;24.93;49.32
46303;BME280;32029;51.358;5.628;2022-07-05T09:34:25;102028.53;;;24.99;49.21
46303;BME280;32029;51.358;5.628;2022-07-05T09:37:00;102027.63;;;24.93;49.34
46303;BME280;32029;51.358;5.628;2022-07-05T09:42:22;102032.53;;;25.03;49.51
46303;BME280;32029;51.358;5.628;2022-07-05T09:44:51;102028.81;;;24.97;49.52
46303;BME280;32029;51.358;5.628;2022-07-05T09:47:21;102021.81;;;25.00;48.82
46303;BME280;32029;51.358;5.628;2022-07-05T09:49:51;102014.06;;;25.07;48.29
46303;BME280;32029;51.358;5.628;2022-07-05T09:52:31;102014.34;;;25.22;49.22
46303;BME280;32029;51.358;5.628;2022-07-05T09:55:06;102012.06;;;25.36;48.39
46303;BME280;32029;51.358;5.628;2022-07-05T09:57:38;102011.94;;;25.48;47.65
46303;BME280;32029;51.358;5.628;2022-07-05T10:00:10;102019.50;;;25.47;47.90
46303;BME280;32029;51.358;5.628;2022-07-05T10:02:43;102005.50;;;25.30;48.41
46303;BME280;32029;51.358;5.628;2022-07-05T10:05:18;102017.31;;;25.15;48.91
46303;BME280;32029;51.358;5.628;2022-07-05T10:07:49;102007.88;;;25.05;47.98
46303;BME280;32029;51.358;5.628;2022-07-05T10:10:23;102005.50;;;24.97;46.24
46303;BME280;32029;51.358;5.628;2022-07-05T10:12:52;102005.50;;;24.97;45.38
46303;BME280;32029;51.358;5.628;2022-07-05T10:15:26;102010.78;;;24.93;45.05
46303;BME280;32029;51.358;5.628;2022-07-05T10:17:59;102004.47;;;24.86;46.04
46303;BME280;32029;51.358;5.628;2022-07-05T10:23:04;102007.84;;;24.88;47.18
46303;BME280;32029;51.358;5.628;2022-07-05T10:25:31;102007.97;;;24.93;46.49
46303;BME280;32029;51.358;5.628;2022-07-05T10:27:58;102000.97;;;24.96;46.48
46303;BME280;32029;51.358;5.628;2022-07-05T10:30:25;101986.00;;;24.90;46.28
46303;BME280;32029;51.358;5.628;2022-07-05T10:32:52;102005.66;;;25.07;45.12
46303;BME280;32029;51.358;5.628;2022-07-05T10:35:19;101994.63;;;25.17;45.64
46303;BME280;32029;51.358;5.628;2022-07-05T10:37:48;102003.78;;;25.29;44.88
46303;BME280;32029;51.358;5.628;2022-07-05T10:40:16;101994.94;;;25.37;44.18
46303;BME280;32029;51.358;5.628;2022-07-05T10:42:52;102004.69;;;25.52;43.93
46303;BME280;32029;51.358;5.628;2022-07-05T10:45:25;101999.94;;;25.74;44.17
46303;BME280;32029;51.358;5.628;2022-07-05T10:50:51;102003.34;;;26.20;43.75
46303;BME280;32029;51.358;5.628;2022-07-05T10:53:23;101999.53;;;26.31;43.32
46303;BME280;32029;51.358;5.628;2022-07-05T10:55:57;101998.59;;;26.48;43.17
46303;BME280;32029;51.358;5.628;2022-07-05T11:06:23;102001.31;;;26.97;41.69
46303;BME280;32029;51.358;5.628;2022-07-05T11:11:30;101999.69;;;27.06;40.06
46303;BME280;32029;51.358;5.628;2022-07-05T11:14:03;102008.34;;;26.99;40.42
46303;BME280;32029;51.358;5.628;2022-07-05T11:16:33;102001.34;;;27.02;40.23
46303;BME280;32029;51.358;5.628;2022-07-05T11:21:33;102009.09;;;26.84;41.65
46303;BME280;32029;51.358;5.628;2022-07-05T11:24:26;102008.78;;;26.81;41.69
46303;BME280;32029;51.358;5.628;2022-07-05T11:26:57;101998.91;;;26.78;41.96
46303;BME280;32029;51.358;5.628;2022-07-05T11:29:44;101994.44;;;26.82;41.06
46303;BME280;32029;51.358;5.628;2022-07-05T11:32:35;102002.91;;;26.55;41.69
46303;BME280;32029;51.358;5.628;2022-07-05T11:35:12;102010.78;;;26.31;41.83
46303;BME280;32029;51.358;5.628;2022-07-05T11:42:54;102001.66;;;26.19;42.92
46303;BME280;32029;51.358;5.628;2022-07-05T11:45:21;101996.53;;;26.16;43.21
46303;BME280;32029;51.358;5.628;2022-07-05T11:47:47;101996.66;;;26.26;43.42
46303;BME280;32029;51.358;5.628;2022-07-05T11:50:15;102003.19;;;26.54;42.88
46303;BME280;32029;51.358;5.628;2022-07-05T11:52:43;101997.22;;;26.77;42.13
46303;BME280;32029;51.358;5.628;2022-07-05T11:55:11;101999.00;;;26.88;42.06
46303;BME280;32029;51.358;5.628;2022-07-05T11:57:48;101986.00;;;26.87;42.24
46303;BME280;32029;51.358;5.628;2022-07-05T12:00:28;102004.75;;;27.04;42.70
46303;BME280;32029;51.358;5.628;2022-07-05T12:02:56;102001.59;;;27.27;41.17
46303;BME280;32029;51.358;5.628;2022-07-05T12:05:31;101972.84;;;27.30;41.16
46303;BME280;32029;51.358;5.628;2022-07-05T12:07:59;101981.38;;;27.46;41.57
46303;BME280;32029;51.358;5.628;2022-07-05T12:10:27;101975.16;;;27.39;40.68
46303;BME280;32029;51.358;5.628;2022-07-05T12:13:12;101986.66;;;27.32;41.38
46303;BME280;32029;51.358;5.628;2022-07-05T12:15:40;101985.63;;;27.43;40.15
46303;BME280;32029;51.358;5.628;2022-07-05T12:18:08;101984.72;;;27.38;41.10
46303;BME280;32029;51.358;5.628;2022-07-05T12:20:37;101979.06;;;27.32;41.55
46303;BME280;32029;51.358;5.628;2022-07-05T12:23:05;101976.84;;;27.40;41.43
46303;BME280;32029;51.358;5.628;2022-07-05T12:25:34;101978.09;;;27.64;40.37
46303;BME280;32029;51.358;5.628;2022-07-05T12:28:03;101979.34;;;27.78;39.47
46303;BME280;32029;51.358;5.628;2022-07-05T12:30:34;101977.13;;;27.91;39.19
46303;BME280;32029;51.358;5.628;2022-07-05T12:33:09;101984.22;;;27.98;38.48
46303;BME280;32029;51.358;5.628;2022-07-05T12:35:42;101978.28;;;28.00;38.52
46303;BME280;32029;51.358;5.628;2022-07-05T12:38:15;101976.00;;;27.97;38.82
46303;BME280;32029;51.358;5.628;2022-07-05T12:40:57;101970.34;;;27.81;38.50
46303;BME280;32029;51.358;5.628;2022-07-05T12:43:25;101993.44;;;27.78;39.45
46303;BME280;32029;51.358;5.628;2022-07-05T12:46:18;101992.19;;;27.59;39.00
46303;BME280;32029;51.358;5.628;2022-07-05T12:48:52;101977.16;;;27.43;38.88
46303;BME280;32029;51.358;5.628;2022-07-05T12:51:49;101981.66;;;27.44;39.38
46303;BME280;32029;51.358;5.628;2022-07-05T12:54:21;101981.38;;;27.46;39.38
46303;BME280;32029;51.358;5.628;2022-07-05T12:57:08;101980.84;;;27.49;39.30
46303;BME280;32029;51.358;5.628;2022-07-05T12:59:59;101963.69;;;27.50;40.31
46303;BME280;32029;51.358;5.628;2022-07-05T13:05:01;101958.84;;;28.08;39.07
46303;BME280;32029;51.358;5.628;2022-07-05T13:07:29;101957.47;;;28.26;38.72
46303;BME280;32029;51.358;5.628;2022-07-05T13:10:12;101969.97;;;28.51;38.82
46303;BME280;32029;51.358;5.628;2022-07-05T13:12:40;101974.50;;;28.57;37.46
46303;BME280;32029;51.358;5.628;2022-07-05T13:15:08;101978.38;;;28.36;37.93
46303;BME280;32029;51.358;5.628;2022-07-05T13:17:35;101972.41;;;28.12;38.04
46303;BME280;32029;51.358;5.628;2022-07-05T13:20:02;101988.66;;;27.79;39.48
46303;BME280;32029;51.358;5.628;2022-07-05T13:22:30;101999.56;;;27.70;40.12
46303;BME280;32029;51.358;5.628;2022-07-05T13:24:56;101977.25;;;27.58;39.57
46303;BME280;32029;51.358;5.628;2022-07-05T13:27:23;101999.53;;;27.65;40.27
46303;BME280;32029;51.358;5.628;2022-07-05T13:29:51;101992.00;;;27.76;40.03
46303;BME280;32029;51.358;5.628;2022-07-05T13:32:18;101980.72;;;27.76;39.95